createdAt,value
2018-11-05T00:00:35.972Z,88.60
2018-11-05T00:03:04.682Z,88.70
2018-11-05T00:05:32.588Z,88.90
2018-11-05T00:08:00.524Z,89.00
2018-11-05T00:10:28.408Z,88.90
2018-11-05T00:12:56.277Z,88.60
2018-11-05T00:15:24.211Z,88.80
2018-11-05T00:17:52.066Z,88.80
2018-11-05T00:20:19.935Z,88.90
2018-11-05T00:22:47.851Z,89.60
2018-11-05T00:25:15.724Z,88.70
2018-11-05T00:27:43.630Z,89.00
2018-11-05T00:30:12.612Z,89.20
2018-11-05T00:32:40.846Z,88.90
2018-11-05T00:35:08.875Z,89.10
2018-11-05T00:37:36.798Z,89.20
2018-11-05T00:40:07.459Z,89.40
2018-11-05T00:42:35.368Z,89.70
2018-11-05T00:45:03.909Z,89.50
2018-11-05T00:47:31.771Z,89.70
2018-11-05T00:49:59.633Z,89.60
2018-11-05T00:52:27.557Z,89.80
2018-11-05T00:54:55.411Z,90.00
2018-11-05T00:57:23.332Z,90.00
2018-11-05T00:59:51.291Z,90.00
2018-11-05T01:02:19.213Z,90.00
2018-11-05T01:04:47.094Z,90.00
2018-11-05T01:07:15.064Z,90.10
2018-11-05T01:09:42.927Z,90.10
2018-11-05T01:12:10.787Z,90.10
2018-11-05T01:14:38.690Z,90.30
2018-11-05T01:17:06.559Z,90.30
2018-11-05T01:19:34.415Z,90.30
2018-11-05T01:22:02.308Z,90.40
2018-11-05T01:24:30.161Z,90.30
2018-11-05T01:26:58.015Z,90.30
2018-11-05T01:29:25.887Z,90.50
2018-11-05T01:31:53.767Z,90.60
2018-11-05T01:34:21.639Z,90.60
2018-11-05T01:36:49.518Z,90.50
2018-11-05T01:39:17.452Z,90.60
2018-11-05T01:41:45.351Z,90.80
2018-11-05T01:44:13.271Z,90.90
2018-11-05T01:46:41.179Z,91.20
2018-11-05T01:49:09.095Z,90.80
2018-11-05T01:51:37.004Z,90.80
2018-11-05T01:54:04.991Z,90.90
2018-11-05T01:56:32.907Z,90.80
2018-11-05T01:59:00.822Z,90.70
2018-11-05T02:01:28.730Z,90.80
2018-11-05T02:03:56.631Z,90.70
2018-11-05T02:06:24.579Z,90.80
2018-11-05T02:08:52.484Z,90.80
2018-11-05T02:11:20.451Z,90.70
2018-11-05T02:13:48.391Z,90.70
2018-11-05T02:16:16.307Z,90.70
2018-11-05T02:18:44.229Z,90.70
2018-11-05T02:21:12.261Z,90.70
2018-11-05T02:23:40.157Z,90.80
2018-11-05T02:26:08.086Z,90.70
2018-11-05T02:28:36.035Z,90.70
2018-11-05T02:31:03.971Z,90.60
2018-11-05T02:33:31.883Z,90.90
2018-11-05T02:35:59.840Z,90.60
2018-11-05T02:38:27.754Z,90.60
2018-11-05T02:40:55.691Z,90.50
2018-11-05T02:43:23.680Z,90.60
2018-11-05T02:45:51.561Z,90.60
2018-11-05T02:48:19.443Z,90.40
2018-11-05T02:50:47.353Z,90.50
2018-11-05T02:53:15.265Z,90.50
2018-11-05T02:55:43.170Z,90.40
2018-11-05T02:58:11.111Z,90.40
2018-11-05T03:00:39.032Z,90.50
2018-11-05T03:03:06.988Z,90.50
2018-11-05T03:05:35.275Z,90.40
2018-11-05T03:08:03.195Z,90.30
2018-11-05T03:10:31.113Z,90.20
2018-11-05T03:12:59.030Z,90.20
2018-11-05T03:15:27.008Z,90.10
2018-11-05T03:17:54.921Z,90.20
2018-11-05T03:20:22.836Z,90.10
2018-11-05T03:22:50.766Z,90.00
2018-11-05T03:25:18.672Z,90.00
2018-11-05T03:27:46.663Z,89.90
2018-11-05T03:30:15.885Z,89.90
2018-11-05T03:32:43.807Z,89.50
2018-11-05T03:35:12.743Z,89.80
2018-11-05T03:37:41.556Z,89.50
2018-11-05T03:40:10.678Z,89.20
2018-11-05T03:42:39.256Z,89.40
2018-11-05T03:45:08.387Z,89.40
2018-11-05T03:47:36.326Z,89.20
2018-11-05T03:50:06.292Z,89.40
2018-11-05T03:52:34.193Z,89.30
2018-11-05T03:55:02.093Z,89.40
2018-11-05T03:57:30.021Z,88.80
2018-11-05T03:59:57.927Z,88.90
2018-11-05T04:02:25.957Z,89.20
2018-11-05T04:04:53.931Z,88.90
2018-11-05T04:07:21.834Z,88.80
2018-11-05T04:09:49.760Z,88.70
2018-11-05T04:12:17.730Z,89.40
2018-11-05T04:14:45.612Z,90.00
2018-11-05T04:17:13.527Z,90.10
2018-11-05T04:19:41.496Z,90.30
2018-11-05T04:22:09.392Z,90.10
2018-11-05T04:24:37.297Z,89.80
2018-11-05T04:27:05.693Z,89.30
2018-11-05T04:29:33.615Z,89.30
2018-11-05T04:32:01.529Z,89.40
2018-11-05T04:34:29.442Z,89.50
2018-11-05T04:36:57.353Z,89.70
2018-11-05T04:39:25.254Z,89.70
2018-11-05T04:41:53.178Z,89.80
2018-11-05T04:44:21.091Z,90.10
2018-11-05T04:46:48.995Z,90.00
2018-11-05T04:49:16.945Z,89.70
2018-11-05T04:51:45.091Z,89.90
2018-11-05T04:54:12.991Z,89.80
2018-11-05T04:56:40.942Z,90.00
2018-11-05T04:59:08.871Z,90.20
2018-11-05T05:01:36.799Z,90.30
2018-11-05T05:04:04.726Z,90.40
2018-11-05T05:06:32.755Z,90.60
2018-11-05T05:09:00.668Z,90.40
2018-11-05T05:11:28.606Z,90.40
2018-11-05T05:13:56.511Z,90.20
2018-11-05T05:16:24.451Z,90.20
2018-11-05T05:18:52.357Z,90.30
2018-11-05T05:21:20.297Z,90.40
2018-11-05T05:23:48.233Z,90.80
2018-11-05T05:26:16.175Z,90.90
2018-11-05T05:28:44.069Z,91.20
2018-11-05T05:31:11.978Z,91.10
2018-11-05T05:33:39.990Z,91.10
2018-11-05T05:36:07.870Z,91.40
2018-11-05T05:38:35.775Z,91.30
2018-11-05T05:41:04.064Z,91.50
2018-11-05T05:43:32.119Z,91.40
2018-11-05T05:46:00.468Z,91.40
2018-11-05T05:48:28.383Z,91.60
2018-11-05T05:50:56.300Z,91.60
2018-11-05T05:53:24.199Z,91.70
2018-11-05T05:55:52.166Z,92.00
2018-11-05T05:58:20.071Z,93.30
2018-11-05T06:00:47.968Z,94.70
2018-11-05T06:03:15.916Z,94.70
2018-11-05T06:05:43.893Z,94.40
2018-11-05T06:08:11.783Z,94.80
2018-11-05T06:10:39.707Z,95.80
2018-11-05T06:13:07.598Z,96.70
2018-11-05T06:15:35.519Z,96.10
2018-11-05T06:18:03.459Z,95.80
2018-11-05T06:20:40.633Z,95.40
2018-11-05T06:23:13.627Z,95.40
2018-11-05T06:25:53.417Z,96.00
2018-11-05T06:28:23.083Z,96.10
2018-11-05T06:31:02.081Z,95.30
2018-11-05T06:33:30.571Z,95.20
2018-11-05T06:35:58.490Z,95.10
2018-11-05T06:38:27.388Z,94.90
2018-11-05T06:41:04.100Z,95.00
2018-11-05T06:43:32.527Z,94.90
2018-11-05T06:46:00.443Z,95.20
2018-11-05T06:48:28.354Z,95.10
2018-11-05T06:50:56.281Z,95.00
2018-11-05T06:53:24.183Z,95.10
2018-11-05T06:55:53.022Z,95.20
2018-11-05T06:58:21.195Z,95.00
2018-11-05T07:00:49.674Z,95.00
2018-11-05T07:03:18.660Z,94.80
2018-11-05T07:05:47.167Z,94.60
2018-11-05T07:08:16.825Z,94.60
2018-11-05T07:10:46.119Z,94.50
2018-11-05T07:13:14.599Z,94.70
2018-11-05T07:15:42.733Z,94.60
2018-11-05T07:18:11.307Z,94.40
2018-11-05T07:20:40.320Z,94.30
2018-11-05T07:23:08.559Z,94.70
2018-11-05T07:25:37.617Z,94.70
2018-11-05T07:28:06.106Z,94.90
2018-11-05T07:30:34.413Z,95.20
2018-11-05T07:33:02.943Z,95.40
2018-11-05T07:35:31.173Z,95.00
2018-11-05T07:37:59.477Z,94.80
2018-11-05T07:40:27.706Z,94.70
2018-11-05T07:42:57.063Z,94.80
2018-11-05T07:45:25.320Z,94.80
2018-11-05T07:47:53.629Z,94.90
2018-11-05T07:50:22.714Z,94.80
2018-11-05T07:52:51.797Z,94.80
2018-11-05T07:55:20.299Z,94.70
2018-11-05T07:57:49.338Z,94.50
2018-11-05T08:00:23.639Z,94.40
2018-11-05T08:02:53.458Z,94.30
2018-11-05T08:05:23.175Z,94.20
2018-11-05T08:07:51.990Z,94.10
2018-11-05T08:10:20.524Z,93.90
2018-11-05T08:12:49.034Z,93.70
2018-11-05T08:15:18.935Z,93.60
2018-11-05T08:17:48.554Z,93.60
2018-11-05T08:20:16.986Z,93.40
2018-11-05T08:22:46.083Z,93.40
2018-11-05T08:25:15.605Z,93.40
2018-11-05T08:27:44.177Z,93.30
2018-11-05T08:30:16.248Z,93.30
2018-11-05T08:32:44.667Z,93.00
2018-11-05T08:35:13.421Z,92.80
2018-11-05T08:37:43.052Z,92.20
2018-11-05T08:40:13.734Z,91.70
2018-11-05T08:42:43.351Z,91.50
2018-11-05T08:45:13.124Z,91.20
2018-11-05T08:47:41.735Z,91.20
2018-11-05T08:50:12.226Z,91.20
2018-11-05T08:52:40.660Z,90.70
2018-11-05T08:55:11.610Z,90.70
2018-11-05T08:57:40.083Z,90.90
2018-11-05T09:00:20.090Z,90.80
2018-11-05T09:02:48.994Z,90.80
2018-11-05T09:05:18.420Z,90.70
2018-11-05T09:07:47.471Z,90.60
2018-11-05T09:10:16.818Z,90.30
2018-11-05T09:12:47.339Z,90.10
2018-11-05T09:15:17.983Z,90.20
2018-11-05T09:17:46.698Z,90.30
2018-11-05T09:20:16.001Z,90.10
2018-11-05T09:22:45.148Z,90.20
2018-11-05T09:25:14.080Z,90.20
2018-11-05T09:27:42.572Z,90.00
2018-11-05T09:30:18.960Z,89.90
2018-11-05T09:32:47.722Z,89.70
2018-11-05T09:35:16.200Z,89.40
2018-11-05T09:37:44.823Z,89.30
2018-11-05T09:40:16.568Z,89.20
2018-11-05T09:42:45.741Z,89.40
2018-11-05T09:45:18.213Z,89.20
2018-11-05T09:47:47.234Z,89.20
2018-11-05T09:50:16.249Z,88.80
2018-11-05T09:52:45.375Z,88.80
2018-11-05T09:55:14.366Z,88.70
2018-11-05T09:57:42.796Z,88.70
2018-11-05T10:00:16.632Z,88.40
2018-11-05T10:02:50.471Z,87.70
2018-11-05T10:05:18.820Z,88.00
2018-11-05T10:07:47.563Z,87.90
2018-11-05T10:10:16.714Z,87.40
2018-11-05T10:12:44.987Z,87.40
2018-11-05T10:15:14.395Z,87.50
2018-11-05T10:17:43.419Z,87.40
2018-11-05T10:20:16.928Z,87.40
2018-11-05T10:22:45.809Z,87.10
2018-11-05T10:25:14.934Z,87.10
2018-11-05T10:27:43.955Z,86.70
2018-11-05T10:30:18.954Z,86.50
2018-11-05T10:32:47.734Z,86.60
2018-11-05T10:35:16.775Z,85.80
2018-11-05T10:37:45.282Z,86.10
2018-11-05T10:40:16.695Z,85.80
2018-11-05T10:42:46.124Z,85.40
2018-11-05T10:45:16.272Z,85.50
2018-11-05T10:47:45.025Z,85.50
2018-11-05T10:50:14.724Z,85.30
2018-11-05T10:52:44.387Z,85.10
2018-11-05T10:55:12.735Z,84.20
2018-11-05T11:04:31.507Z,83.60
2018-11-05T11:07:00.331Z,83.50
2018-11-05T11:09:28.952Z,82.40
2018-11-05T11:11:58.224Z,82.60
2018-11-05T11:14:26.198Z,82.10
2018-11-05T11:16:54.101Z,80.90
2018-11-05T11:19:22.036Z,79.90
2018-11-05T11:21:49.989Z,79.50
2018-11-05T11:24:18.395Z,79.20
2018-11-05T11:26:46.331Z,78.10
2018-11-05T11:29:14.323Z,78.00
2018-11-05T11:31:42.148Z,77.10
2018-11-05T11:34:10.094Z,77.00
2018-11-05T11:36:38.532Z,77.10
2018-11-05T11:39:08.775Z,77.60
2018-11-05T11:41:36.730Z,76.40
2018-11-05T11:44:05.241Z,77.10
2018-11-05T11:46:33.994Z,76.80
2018-11-05T11:49:01.924Z,76.80
2018-11-05T11:51:29.840Z,77.00
2018-11-05T11:53:57.754Z,77.60
2018-11-05T11:56:25.678Z,76.50
2018-11-05T11:58:53.646Z,76.40
2018-11-05T12:01:21.539Z,77.20
2018-11-05T12:03:49.778Z,76.10
2018-11-05T12:06:18.059Z,75.40
2018-11-05T12:08:45.952Z,75.20
2018-11-05T12:11:13.884Z,74.20
2018-11-05T12:13:41.794Z,74.00
2018-11-05T12:16:09.698Z,73.90
2018-11-05T12:18:37.663Z,72.90
2018-11-05T12:21:05.593Z,73.20
2018-11-05T12:23:33.493Z,73.20
2018-11-05T12:26:01.407Z,72.50
2018-11-05T12:28:29.295Z,71.70
2018-11-05T12:30:57.204Z,72.00
2018-11-05T12:33:25.102Z,71.50
2018-11-05T12:35:53.416Z,71.40
2018-11-05T12:38:21.295Z,71.20
2018-11-05T12:40:49.234Z,71.90
2018-11-05T12:43:17.104Z,71.50
2018-11-05T12:45:45.040Z,72.00
2018-11-05T12:48:12.980Z,71.80
2018-11-05T12:50:41.000Z,71.60
2018-11-05T12:53:08.873Z,71.50
2018-11-05T12:55:36.827Z,71.20
2018-11-05T12:58:05.105Z,71.30
2018-11-05T13:00:33.020Z,71.50
2018-11-05T13:03:01.336Z,71.40
2018-11-05T13:05:30.531Z,71.60
2018-11-05T13:07:58.468Z,71.50
2018-11-05T13:10:26.402Z,70.90
2018-11-05T13:12:54.329Z,70.70
2018-11-05T13:15:22.358Z,71.20
2018-11-05T13:17:50.182Z,71.00
2018-11-05T13:20:20.581Z,71.90
2018-11-05T13:22:49.164Z,71.10
2018-11-05T13:25:17.576Z,70.80
2018-11-05T13:27:47.199Z,70.90
2018-11-05T13:30:16.156Z,70.50
2018-11-05T13:32:44.975Z,70.90
2018-11-05T13:35:15.742Z,70.80
2018-11-05T13:37:44.866Z,71.60
2018-11-05T13:40:15.540Z,71.60
2018-11-05T13:42:44.095Z,71.80
2018-11-05T13:45:13.152Z,71.90
2018-11-05T13:47:42.116Z,71.60
2018-11-05T13:50:10.554Z,71.70
2018-11-05T13:52:38.349Z,72.00
2018-11-05T13:55:07.965Z,72.30
2018-11-05T13:57:35.892Z,71.50
2018-11-05T14:00:04.800Z,72.70
2018-11-05T14:02:32.757Z,71.80
2018-11-05T14:05:00.675Z,72.20
2018-11-05T14:07:28.603Z,71.20
2018-11-05T14:09:57.156Z,71.30
2018-11-05T14:12:25.038Z,71.60
2018-11-05T14:14:52.934Z,71.90
2018-11-05T14:17:20.875Z,71.00
2018-11-05T14:19:48.775Z,70.90
2018-11-05T14:22:16.675Z,71.10
2018-11-05T14:24:45.783Z,71.10
2018-11-05T14:27:14.291Z,71.50
2018-11-05T14:29:44.565Z,72.20
2018-11-05T14:32:12.509Z,72.40
2018-11-05T14:34:40.712Z,71.90
2018-11-05T14:37:09.041Z,71.90
2018-11-05T14:39:37.270Z,72.20
2018-11-05T14:42:06.522Z,72.30
2018-11-05T14:44:34.828Z,72.60
2018-11-05T14:47:03.363Z,72.80
2018-11-05T14:49:31.266Z,73.30
2018-11-05T14:51:59.187Z,73.60
2018-11-05T14:54:27.120Z,73.60
2018-11-05T14:56:55.021Z,73.40
2018-11-05T14:59:22.946Z,74.00
2018-11-05T15:01:56.411Z,74.00
2018-11-05T15:04:24.332Z,74.00
2018-11-05T15:06:52.227Z,74.30
2018-11-05T15:09:20.134Z,74.20
2018-11-05T15:11:48.081Z,73.80
2018-11-05T15:14:20.298Z,74.10
2018-11-05T15:16:48.342Z,74.10
2018-11-05T15:19:31.797Z,74.20
2018-11-05T15:22:00.573Z,74.90
2018-11-05T15:24:30.150Z,74.90
2018-11-05T15:26:58.940Z,75.00
2018-11-05T15:29:27.452Z,75.20
2018-11-05T15:31:55.509Z,75.30
2018-11-05T15:34:23.548Z,74.90
2018-11-05T15:36:51.566Z,75.30
2018-11-05T15:39:19.576Z,75.50
2018-11-05T15:41:47.605Z,75.60
2018-11-05T15:44:15.663Z,75.70
2018-11-05T15:46:43.654Z,76.00
2018-11-05T15:49:11.718Z,76.00
2018-11-05T15:51:39.950Z,76.30
2018-11-05T15:54:08.722Z,76.50
2018-11-05T15:56:36.693Z,76.70
2018-11-05T15:59:05.023Z,76.70
2018-11-05T16:01:33.069Z,76.80
2018-11-05T16:04:01.091Z,77.40
2018-11-05T16:06:29.770Z,77.60
2018-11-05T16:08:58.475Z,77.60
2018-11-05T16:11:26.492Z,77.70
2018-11-05T16:13:54.522Z,78.10
2018-11-05T16:16:22.551Z,77.80
2018-11-05T16:18:51.166Z,77.90
2018-11-05T16:21:19.242Z,78.30
2018-11-05T16:23:47.291Z,78.70
2018-11-05T16:26:16.085Z,78.80
2018-11-05T16:28:44.106Z,78.60
2018-11-05T16:31:12.179Z,79.00
2018-11-05T16:33:57.866Z,79.00
2018-11-05T16:36:25.878Z,79.30
2018-11-05T16:38:54.579Z,79.40
2018-11-05T16:41:22.670Z,79.80
2018-11-05T16:43:50.747Z,79.80
2018-11-05T16:46:20.234Z,80.20
2018-11-05T16:48:49.065Z,80.00
2018-11-05T16:51:17.169Z,80.10
2018-11-05T16:53:45.280Z,80.40
2018-11-05T16:56:13.267Z,80.50
2018-11-05T16:58:43.346Z,80.50
2018-11-05T17:01:11.480Z,80.80
2018-11-05T17:03:39.517Z,80.80
2018-11-05T17:06:07.546Z,80.90
2018-11-05T17:08:36.164Z,81.40
2018-11-05T17:11:06.917Z,81.40
2018-11-05T17:13:35.770Z,81.70
2018-11-05T17:16:05.478Z,81.70
2018-11-05T17:18:35.455Z,82.10
2018-11-05T17:21:04.152Z,82.30
2018-11-05T17:23:33.717Z,82.30
2018-11-05T17:26:03.403Z,82.40
2018-11-05T17:28:31.520Z,82.80
2018-11-05T17:31:01.963Z,82.80
2018-11-05T17:33:30.491Z,83.00
2018-11-05T17:36:00.061Z,83.20
2018-11-05T17:38:34.940Z,83.30
2018-11-05T17:41:04.051Z,83.20
2018-11-05T17:43:33.303Z,83.70
2018-11-05T17:46:03.196Z,83.80
2018-11-05T17:48:31.853Z,84.00
2018-11-05T17:51:00.826Z,84.00
2018-11-05T17:53:29.642Z,84.20
2018-11-05T17:55:59.561Z,84.20
2018-11-05T17:58:59.715Z,84.50
2018-11-05T18:01:40.395Z,84.70
2018-11-05T18:04:12.002Z,84.70
2018-11-05T18:06:40.103Z,84.80
2018-11-05T18:09:10.829Z,84.90
2018-11-05T18:11:39.597Z,84.90
2018-11-05T18:14:08.466Z,85.00
2018-11-05T18:16:36.462Z,85.30
2018-11-05T18:19:04.688Z,85.40
2018-11-05T18:21:32.706Z,86.30
2018-11-05T18:24:00.827Z,85.60
2018-11-05T18:26:33.969Z,86.00
2018-11-05T18:29:03.273Z,85.90
2018-11-05T18:31:34.763Z,86.10
2018-11-05T18:34:04.624Z,86.10
2018-11-05T18:36:33.859Z,86.20
2018-11-05T18:39:12.419Z,86.70
2018-11-05T18:41:40.483Z,86.70
2018-11-05T18:44:09.578Z,86.70
2018-11-05T18:46:43.703Z,86.80
2018-11-05T18:49:12.899Z,86.60
2018-11-05T18:51:45.242Z,86.80
2018-11-05T18:54:16.117Z,86.90
2018-11-05T18:56:46.881Z,87.10
2018-11-05T18:59:24.083Z,87.60
2018-11-05T19:01:55.048Z,87.20
2018-11-05T19:04:28.051Z,87.10
2018-11-05T19:07:01.899Z,87.10
2018-11-05T19:09:31.782Z,87.00
2018-11-05T19:12:04.065Z,87.30
2018-11-05T19:14:35.869Z,87.30
2018-11-05T19:17:05.852Z,88.10
2018-11-05T19:19:34.109Z,88.20
2018-11-05T19:22:07.337Z,88.30
2018-11-05T19:24:37.198Z,88.00
2018-11-05T19:27:30.953Z,88.30
2018-11-05T19:30:03.824Z,88.60
2018-11-05T19:32:34.524Z,88.50
2018-11-05T19:35:14.412Z,88.10
2018-11-05T19:37:44.436Z,88.30
2018-11-05T19:40:14.565Z,88.30
2018-11-05T19:42:49.869Z,88.50
2018-11-05T19:45:21.611Z,89.70
2018-11-05T19:47:51.868Z,89.80
2018-11-05T19:50:28.535Z,90.50
2018-11-05T19:52:57.497Z,90.20
2018-11-05T19:55:26.461Z,90.40
2018-11-05T19:57:54.806Z,90.40
2018-11-05T20:00:27.014Z,90.40
2018-11-05T20:02:59.669Z,90.40
2018-11-05T20:05:31.777Z,90.40
2018-11-05T20:08:02.684Z,90.50
2018-11-05T20:10:34.198Z,90.50
2018-11-05T20:13:03.849Z,90.40
2018-11-05T20:15:32.072Z,90.40
2018-11-05T20:18:01.803Z,90.40
2018-11-05T20:20:37.390Z,90.30
2018-11-05T20:23:07.029Z,90.40
2018-11-05T20:25:38.197Z,90.30
2018-11-05T20:28:09.752Z,90.40
2018-11-05T20:30:46.354Z,90.30
2018-11-05T20:33:15.949Z,90.30
2018-11-05T20:35:48.420Z,90.30
2018-11-05T20:38:16.497Z,90.30
2018-11-05T20:40:52.235Z,90.40
2018-11-05T20:43:25.283Z,90.30
2018-11-05T20:45:54.202Z,90.30
2018-11-05T20:48:22.225Z,90.30
2018-11-05T20:50:52.401Z,90.30
2018-11-05T20:53:21.466Z,90.10
2018-11-05T20:55:53.272Z,90.00
2018-11-05T20:58:25.272Z,90.00
2018-11-05T21:00:54.328Z,89.90
2018-11-05T21:03:23.465Z,89.90
2018-11-05T21:05:53.690Z,89.70
2018-11-05T21:08:23.259Z,89.70
2018-11-05T21:10:52.279Z,89.50
2018-11-05T21:13:20.298Z,89.50
2018-11-05T21:15:50.139Z,89.40
2018-11-05T21:18:21.268Z,89.10
2018-11-05T21:20:50.790Z,89.10
2018-11-05T21:23:18.840Z,89.00
2018-11-05T21:25:47.470Z,88.80
2018-11-05T21:28:17.114Z,89.90
2018-11-05T21:30:45.180Z,90.10
2018-11-05T21:33:34.508Z,90.00
2018-11-05T21:36:03.121Z,90.20
2018-11-05T21:38:31.242Z,90.00
2018-11-05T21:40:59.378Z,90.00
2018-11-05T21:43:27.976Z,89.90
2018-11-05T21:45:55.990Z,89.90
2018-11-05T21:48:24.876Z,89.60
2018-11-05T21:50:53.710Z,89.80
2018-11-05T21:53:22.618Z,90.00
2018-11-05T21:55:50.730Z,89.80
2018-11-05T21:58:18.753Z,89.70
2018-11-05T22:00:48.504Z,89.50
2018-11-05T22:03:18.013Z,89.70
2018-11-05T22:05:46.599Z,89.70
2018-11-05T22:08:14.644Z,89.90
2018-11-05T22:10:42.645Z,90.00
2018-11-05T22:13:10.744Z,90.00
2018-11-05T22:15:45.604Z,89.70
2018-11-05T22:18:14.368Z,89.90
2018-11-05T22:20:42.390Z,89.80
2018-11-05T22:23:11.153Z,90.50
2018-11-05T22:25:39.174Z,90.20
2018-11-05T22:28:07.722Z,90.00
2018-11-05T22:30:35.778Z,90.00
2018-11-05T22:33:04.238Z,90.00
2018-11-05T22:35:32.265Z,89.60
2018-11-05T22:38:00.363Z,89.60
2018-11-05T22:40:28.371Z,89.70
2018-11-05T22:42:56.327Z,89.60
2018-11-05T22:45:24.448Z,89.40
2018-11-05T22:47:52.454Z,89.40
2018-11-05T22:50:20.495Z,89.20
2018-11-05T22:52:48.488Z,89.30
2018-11-05T22:55:16.451Z,89.60
2018-11-05T22:57:44.429Z,89.20
2018-11-05T23:00:20.547Z,89.40
2018-11-05T23:03:54.551Z,89.20
2018-11-05T23:06:22.552Z,89.20
2018-11-05T23:08:50.536Z,89.50
2018-11-05T23:11:18.498Z,89.50
2018-11-05T23:13:46.493Z,89.50
2018-11-05T23:16:14.565Z,89.60
2018-11-05T23:18:42.666Z,89.70
2018-11-05T23:21:10.669Z,90.10
2018-11-05T23:23:38.669Z,90.20
2018-11-05T23:26:06.691Z,90.10
2018-11-05T23:28:34.694Z,90.30
2018-11-05T23:31:02.686Z,90.40
2018-11-05T23:33:30.782Z,90.50
2018-11-05T23:35:58.765Z,90.40
2018-11-05T23:38:26.742Z,90.20
2018-11-05T23:40:54.796Z,90.00
2018-11-05T23:43:22.771Z,90.00
2018-11-05T23:45:50.743Z,90.10
2018-11-05T23:48:18.811Z,89.90
2018-11-05T23:50:46.838Z,90.00
2018-11-05T23:53:14.824Z,90.10
2018-11-05T23:55:42.799Z,90.20
2018-11-05T23:58:10.852Z,90.10
